Redings Mill, Missouri
Current Conditions -  °F | °C
As of 7:53 AM on Thursday 30 Oct 2014 (Local Time) from KJLN Reporting Station
Scattered Clouds Scattered Clouds  
Wind Chill: 11°   Ceiling: Unl
Heat Index: 11°   Visibility: 10mi
Dew Point:   Wind: 10mph
Humidity: 63%   Direction: 200°SSW
Pressure: 30.07"   Gusts: NA
Location:  37.1074°N, 94.5218°W
Report Text: KJLN 301253Z 20009KT 10SM SCT100 11/04 A3007 RMK AO2 SLP183 T01110044
Loading
Personal Weather Stations






























Interactive Weather Map
Tropical Storm Tracking
New forecast layout! Learn more

10-Day Weather Forecast

Advertisements
Track Severe Weather on mobile